sensor_id;sensor_type;location;lat;lon;timestamp;P1;durP1;ratioP1;P2;durP2;ratioP2
3000;SDS011;1510;51.072;6.678;2023-07-29T00:00:40;1008.73;;;900.43;;
3000;SDS011;1510;51.072;6.678;2023-07-29T00:03:07;1007.67;;;900.37;;
3000;SDS011;1510;51.072;6.678;2023-07-29T00:05:34;1008.20;;;900.77;;
3000;SDS011;1510;51.072;6.678;2023-07-29T00:08:01;1012.27;;;904.73;;
3000;SDS011;1510;51.072;6.678;2023-07-29T00:10:28;992.03;;;885.97;;
3000;SDS011;1510;51.072;6.678;2023-07-29T00:12:55;1002.77;;;896.50;;
3000;SDS011;1510;51.072;6.678;2023-07-29T00:15:22;1008.40;;;901.80;;
3000;SDS011;1510;51.072;6.678;2023-07-29T00:17:50;1005.43;;;898.10;;
3000;SDS011;1510;51.072;6.678;2023-07-29T00:20:17;1009.83;;;902.37;;
3000;SDS011;1510;51.072;6.678;2023-07-29T00:22:44;994.20;;;887.63;;
3000;SDS011;1510;51.072;6.678;2023-07-29T00:25:10;1007.67;;;900.00;;
3000;SDS011;1510;51.072;6.678;2023-07-29T00:27:37;995.50;;;888.30;;
3000;SDS011;1510;51.072;6.678;2023-07-29T00:30:05;990.80;;;883.70;;
3000;SDS011;1510;51.072;6.678;2023-07-29T00:32:33;996.17;;;889.07;;
3000;SDS011;1510;51.072;6.678;2023-07-29T00:35:02;988.90;;;881.37;;
3000;SDS011;1510;51.072;6.678;2023-07-29T00:37:30;1004.53;;;895.67;;
3000;SDS011;1510;51.072;6.678;2023-07-29T00:39:57;994.97;;;886.57;;
3000;SDS011;1510;51.072;6.678;2023-07-29T00:42:24;982.10;;;875.90;;
3000;SDS011;1510;51.072;6.678;2023-07-29T00:44:51;990.90;;;883.90;;
3000;SDS011;1510;51.072;6.678;2023-07-29T00:47:17;993.60;;;886.00;;
3000;SDS011;1510;51.072;6.678;2023-07-29T00:49:46;997.67;;;889.80;;
3000;SDS011;1510;51.072;6.678;2023-07-29T00:52:15;999.00;;;890.77;;
3000;SDS011;1510;51.072;6.678;2023-07-29T00:54:41;996.23;;;888.50;;
3000;SDS011;1510;51.072;6.678;2023-07-29T00:57:08;1008.07;;;899.50;;
3000;SDS011;1510;51.072;6.678;2023-07-29T00:59:38;994.00;;;886.47;;
3000;SDS011;1510;51.072;6.678;2023-07-29T01:02:05;1000.77;;;893.07;;
3000;SDS011;1510;51.072;6.678;2023-07-29T01:04:33;1010.10;;;902.07;;
3000;SDS011;1510;51.072;6.678;2023-07-29T01:07:02;996.03;;;888.67;;
3000;SDS011;1510;51.072;6.678;2023-07-29T01:09:38;997.23;;;890.53;;
3000;SDS011;1510;51.072;6.678;2023-07-29T01:12:16;994.87;;;888.20;;
3000;SDS011;1510;51.072;6.678;2023-07-29T01:14:51;992.47;;;885.17;;
3000;SDS011;1510;51.072;6.678;2023-07-29T01:17:26;994.63;;;887.67;;
3000;SDS011;1510;51.072;6.678;2023-07-29T01:20:00;988.27;;;882.50;;
3000;SDS011;1510;51.072;6.678;2023-07-29T01:22:30;999.23;;;892.33;;
3000;SDS011;1510;51.072;6.678;2023-07-29T01:25:00;1001.87;;;894.40;;
3000;SDS011;1510;51.072;6.678;2023-07-29T01:27:27;1015.47;;;906.00;;
3000;SDS011;1510;51.072;6.678;2023-07-29T01:29:54;1014.97;;;905.27;;
3000;SDS011;1510;51.072;6.678;2023-07-29T01:32:23;1012.30;;;902.93;;
3000;SDS011;1510;51.072;6.678;2023-07-29T01:34:56;1013.00;;;904.20;;
3000;SDS011;1510;51.072;6.678;2023-07-29T01:37:27;1015.80;;;906.60;;
3000;SDS011;1510;51.072;6.678;2023-07-29T01:40:00;1010.87;;;901.17;;
3000;SDS011;1510;51.072;6.678;2023-07-29T01:42:28;1009.70;;;901.20;;
3000;SDS011;1510;51.072;6.678;2023-07-29T01:44:57;1008.97;;;900.80;;
3000;SDS011;1510;51.072;6.678;2023-07-29T01:47:24;1012.27;;;902.70;;
3000;SDS011;1510;51.072;6.678;2023-07-29T01:49:51;1003.37;;;894.77;;
3000;SDS011;1510;51.072;6.678;2023-07-29T01:52:18;998.57;;;891.00;;
3000;SDS011;1510;51.072;6.678;2023-07-29T01:54:44;999.37;;;893.17;;
3000;SDS011;1510;51.072;6.678;2023-07-29T01:57:13;1049.37;;;939.17;;
3000;SDS011;1510;51.072;6.678;2023-07-29T01:59:39;1067.50;;;956.93;;
3000;SDS011;1510;51.072;6.678;2023-07-29T02:02:06;1118.37;;;999.90;;
3000;SDS011;1510;51.072;6.678;2023-07-29T02:04:33;1151.90;;;999.90;;
3000;SDS011;1510;51.072;6.678;2023-07-29T02:07:00;1148.43;;;999.90;;
3000;SDS011;1510;51.072;6.678;2023-07-29T02:09:27;1208.63;;;999.90;;
3000;SDS011;1510;51.072;6.678;2023-07-29T02:11:54;1208.87;;;999.90;;
3000;SDS011;1510;51.072;6.678;2023-07-29T02:14:22;1252.03;;;999.90;;
3000;SDS011;1510;51.072;6.678;2023-07-29T02:16:49;1248.53;;;999.90;;
3000;SDS011;1510;51.072;6.678;2023-07-29T02:19:16;1241.17;;;999.90;;
3000;SDS011;1510;51.072;6.678;2023-07-29T02:21:43;1235.80;;;999.90;;
3000;SDS011;1510;51.072;6.678;2023-07-29T02:24:10;1228.70;;;999.90;;
3000;SDS011;1510;51.072;6.678;2023-07-29T02:26:37;1225.37;;;999.90;;
3000;SDS011;1510;51.072;6.678;2023-07-29T02:29:04;1222.13;;;999.90;;
3000;SDS011;1510;51.072;6.678;2023-07-29T02:31:32;1222.67;;;999.90;;
3000;SDS011;1510;51.072;6.678;2023-07-29T02:34:01;1221.47;;;999.90;;
3000;SDS011;1510;51.072;6.678;2023-07-29T02:36:29;1212.90;;;999.90;;
3000;SDS011;1510;51.072;6.678;2023-07-29T02:38:56;1214.77;;;999.90;;
3000;SDS011;1510;51.072;6.678;2023-07-29T02:41:22;1215.93;;;999.90;;
3000;SDS011;1510;51.072;6.678;2023-07-29T02:43:49;1249.23;;;999.90;;
3000;SDS011;1510;51.072;6.678;2023-07-29T02:46:17;1241.03;;;999.90;;
3000;SDS011;1510;51.072;6.678;2023-07-29T02:48:45;1231.50;;;999.90;;
3000;SDS011;1510;51.072;6.678;2023-07-29T02:51:12;1228.30;;;999.90;;
3000;SDS011;1510;51.072;6.678;2023-07-29T02:53:39;1230.70;;;999.90;;
3000;SDS011;1510;51.072;6.678;2023-07-29T02:56:06;1240.57;;;999.90;;
3000;SDS011;1510;51.072;6.678;2023-07-29T02:58:34;1241.13;;;999.90;;
3000;SDS011;1510;51.072;6.678;2023-07-29T03:01:01;1243.40;;;999.90;;
3000;SDS011;1510;51.072;6.678;2023-07-29T03:03:28;1241.73;;;999.90;;
3000;SDS011;1510;51.072;6.678;2023-07-29T03:06:00;1227.07;;;999.90;;
3000;SDS011;1510;51.072;6.678;2023-07-29T03:08:28;1225.30;;;999.90;;
3000;SDS011;1510;51.072;6.678;2023-07-29T03:10:55;1220.77;;;999.90;;
3000;SDS011;1510;51.072;6.678;2023-07-29T03:13:22;1231.90;;;999.90;;
3000;SDS011;1510;51.072;6.678;2023-07-29T03:15:49;1221.87;;;999.90;;
3000;SDS011;1510;51.072;6.678;2023-07-29T03:18:16;1219.50;;;999.90;;
3000;SDS011;1510;51.072;6.678;2023-07-29T03:20:43;1213.13;;;999.90;;
3000;SDS011;1510;51.072;6.678;2023-07-29T03:23:11;1212.93;;;999.90;;
3000;SDS011;1510;51.072;6.678;2023-07-29T03:25:38;1218.20;;;999.90;;
3000;SDS011;1510;51.072;6.678;2023-07-29T03:28:05;1224.07;;;999.90;;
3000;SDS011;1510;51.072;6.678;2023-07-29T03:30:31;1214.10;;;999.90;;
3000;SDS011;1510;51.072;6.678;2023-07-29T03:32:58;1208.97;;;999.90;;
3000;SDS011;1510;51.072;6.678;2023-07-29T03:35:25;1215.37;;;999.90;;
3000;SDS011;1510;51.072;6.678;2023-07-29T03:37:52;1210.90;;;999.90;;
3000;SDS011;1510;51.072;6.678;2023-07-29T03:40:20;1203.00;;;999.90;;
3000;SDS011;1510;51.072;6.678;2023-07-29T03:42:47;1209.67;;;999.90;;
3000;SDS011;1510;51.072;6.678;2023-07-29T03:45:14;1211.67;;;999.90;;
3000;SDS011;1510;51.072;6.678;2023-07-29T03:47:41;1207.73;;;999.90;;
3000;SDS011;1510;51.072;6.678;2023-07-29T03:50:08;1207.00;;;999.90;;
3000;SDS011;1510;51.072;6.678;2023-07-29T03:52:35;1215.30;;;999.90;;
3000;SDS011;1510;51.072;6.678;2023-07-29T03:55:02;1206.87;;;999.90;;
3000;SDS011;1510;51.072;6.678;2023-07-29T03:57:31;1215.83;;;999.90;;
3000;SDS011;1510;51.072;6.678;2023-07-29T03:59:58;1214.07;;;999.90;;
3000;SDS011;1510;51.072;6.678;2023-07-29T04:02:25;1188.63;;;999.90;;
3000;SDS011;1510;51.072;6.678;2023-07-29T04:04:51;1193.33;;;999.90;;
3000;SDS011;1510;51.072;6.678;2023-07-29T04:07:18;1187.17;;;999.90;;
3000;SDS011;1510;51.072;6.678;2023-07-29T04:09:45;1189.37;;;999.90;;
3000;SDS011;1510;51.072;6.678;2023-07-29T04:12:12;1204.10;;;999.90;;
3000;SDS011;1510;51.072;6.678;2023-07-29T04:14:40;1207.40;;;999.90;;
3000;SDS011;1510;51.072;6.678;2023-07-29T04:17:07;1215.10;;;999.90;;
3000;SDS011;1510;51.072;6.678;2023-07-29T04:19:34;1211.47;;;999.90;;
3000;SDS011;1510;51.072;6.678;2023-07-29T04:22:01;1213.80;;;999.90;;
3000;SDS011;1510;51.072;6.678;2023-07-29T04:24:28;1203.77;;;999.90;;
3000;SDS011;1510;51.072;6.678;2023-07-29T04:26:55;1214.50;;;999.90;;
3000;SDS011;1510;51.072;6.678;2023-07-29T04:29:22;1208.93;;;999.90;;
3000;SDS011;1510;51.072;6.678;2023-07-29T04:31:50;1209.73;;;999.90;;
3000;SDS011;1510;51.072;6.678;2023-07-29T04:34:17;1206.87;;;999.90;;
3000;SDS011;1510;51.072;6.678;2023-07-29T04:36:45;1208.47;;;999.90;;
3000;SDS011;1510;51.072;6.678;2023-07-29T04:39:12;1197.47;;;999.90;;
3000;SDS011;1510;51.072;6.678;2023-07-29T04:41:39;1193.80;;;999.90;;
3000;SDS011;1510;51.072;6.678;2023-07-29T04:44:06;1185.73;;;999.90;;
3000;SDS011;1510;51.072;6.678;2023-07-29T04:46:33;1175.87;;;999.90;;
3000;SDS011;1510;51.072;6.678;2023-07-29T04:49:01;1163.63;;;999.90;;
3000;SDS011;1510;51.072;6.678;2023-07-29T04:51:28;1149.00;;;999.90;;
3000;SDS011;1510;51.072;6.678;2023-07-29T04:53:56;1126.90;;;999.90;;
3000;SDS011;1510;51.072;6.678;2023-07-29T04:56:23;1107.90;;;999.90;;
3000;SDS011;1510;51.072;6.678;2023-07-29T04:58:50;1077.30;;;976.30;;
3000;SDS011;1510;51.072;6.678;2023-07-29T05:01:17;1026.23;;;929.03;;
3000;SDS011;1510;51.072;6.678;2023-07-29T05:03:44;1012.23;;;916.73;;
3000;SDS011;1510;51.072;6.678;2023-07-29T05:06:12;1003.20;;;908.10;;
3000;SDS011;1510;51.072;6.678;2023-07-29T05:08:41;1001.73;;;906.17;;
3000;SDS011;1510;51.072;6.678;2023-07-29T05:11:08;974.90;;;882.10;;
3000;SDS011;1510;51.072;6.678;2023-07-29T05:13:35;981.20;;;888.20;;
3000;SDS011;1510;51.072;6.678;2023-07-29T05:16:03;975.63;;;883.43;;
3000;SDS011;1510;51.072;6.678;2023-07-29T05:18:30;955.57;;;865.17;;
3000;SDS011;1510;51.072;6.678;2023-07-29T05:20:56;943.50;;;852.80;;
3000;SDS011;1510;51.072;6.678;2023-07-29T05:23:25;949.40;;;859.80;;
3000;SDS011;1510;51.072;6.678;2023-07-29T05:25:51;926.60;;;838.67;;
3000;SDS011;1510;51.072;6.678;2023-07-29T05:28:18;924.50;;;836.07;;
3000;SDS011;1510;51.072;6.678;2023-07-29T05:30:45;924.83;;;836.13;;
3000;SDS011;1510;51.072;6.678;2023-07-29T05:33:12;915.90;;;828.60;;
3000;SDS011;1510;51.072;6.678;2023-07-29T05:35:39;905.53;;;819.80;;
3000;SDS011;1510;51.072;6.678;2023-07-29T05:38:05;905.47;;;819.50;;
3000;SDS011;1510;51.072;6.678;2023-07-29T05:40:35;910.03;;;822.57;;
3000;SDS011;1510;51.072;6.678;2023-07-29T05:43:02;904.97;;;820.20;;
3000;SDS011;1510;51.072;6.678;2023-07-29T05:45:29;904.30;;;822.80;;
3000;SDS011;1510;51.072;6.678;2023-07-29T05:47:57;906.30;;;826.10;;
3000;SDS011;1510;51.072;6.678;2023-07-29T05:50:23;887.77;;;810.57;;
3000;SDS011;1510;51.072;6.678;2023-07-29T05:52:50;892.53;;;818.03;;
3000;SDS011;1510;51.072;6.678;2023-07-29T05:55:17;882.70;;;807.10;;
3000;SDS011;1510;51.072;6.678;2023-07-29T05:57:46;882.30;;;808.30;;
3000;SDS011;1510;51.072;6.678;2023-07-29T06:00:12;876.97;;;803.20;;
3000;SDS011;1510;51.072;6.678;2023-07-29T06:02:39;869.50;;;799.47;;
3000;SDS011;1510;51.072;6.678;2023-07-29T06:05:07;865.27;;;797.77;;
3000;SDS011;1510;51.072;6.678;2023-07-29T06:07:34;869.83;;;800.57;;
3000;SDS011;1510;51.072;6.678;2023-07-29T06:10:01;858.77;;;790.63;;
3000;SDS011;1510;51.072;6.678;2023-07-29T06:12:28;858.10;;;791.40;;
3000;SDS011;1510;51.072;6.678;2023-07-29T06:14:56;854.97;;;788.37;;
3000;SDS011;1510;51.072;6.678;2023-07-29T06:17:23;863.80;;;797.70;;
3000;SDS011;1510;51.072;6.678;2023-07-29T06:19:50;861.03;;;798.67;;
3000;SDS011;1510;51.072;6.678;2023-07-29T06:22:17;851.40;;;790.17;;
3000;SDS011;1510;51.072;6.678;2023-07-29T06:24:44;839.73;;;783.37;;
3000;SDS011;1510;51.072;6.678;2023-07-29T06:27:11;812.83;;;761.53;;
3000;SDS011;1510;51.072;6.678;2023-07-29T06:29:38;782.77;;;737.67;;
3000;SDS011;1510;51.072;6.678;2023-07-29T06:32:06;703.40;;;669.67;;
3000;SDS011;1510;51.072;6.678;2023-07-29T06:34:33;764.43;;;723.33;;
3000;SDS011;1510;51.072;6.678;2023-07-29T06:37:00;774.30;;;731.33;;
3000;SDS011;1510;51.072;6.678;2023-07-29T06:39:27;806.10;;;759.17;;
3000;SDS011;1510;51.072;6.678;2023-07-29T06:41:54;785.90;;;741.70;;
3000;SDS011;1510;51.072;6.678;2023-07-29T06:44:21;782.73;;;738.53;;
3000;SDS011;1510;51.072;6.678;2023-07-29T06:46:47;811.50;;;763.30;;
3000;SDS011;1510;51.072;6.678;2023-07-29T06:49:16;780.67;;;737.67;;
3000;SDS011;1510;51.072;6.678;2023-07-29T06:51:43;758.80;;;718.80;;
3000;SDS011;1510;51.072;6.678;2023-07-29T06:54:09;691.53;;;660.13;;
3000;SDS011;1510;51.072;6.678;2023-07-29T06:56:36;536.93;;;516.83;;
3000;SDS011;1510;51.072;6.678;2023-07-29T06:59:03;437.87;;;422.97;;
3000;SDS011;1510;51.072;6.678;2023-07-29T07:01:30;192.97;;;186.53;;
3000;SDS011;1510;51.072;6.678;2023-07-29T07:03:57;253.07;;;245.23;;
3000;SDS011;1510;51.072;6.678;2023-07-29T07:06:25;153.60;;;148.47;;
3000;SDS011;1510;51.072;6.678;2023-07-29T07:08:52;51.90;;;49.60;;
3000;SDS011;1510;51.072;6.678;2023-07-29T07:11:19;101.70;;;97.93;;
3000;SDS011;1510;51.072;6.678;2023-07-29T07:13:46;63.00;;;59.50;;
3000;SDS011;1510;51.072;6.678;2023-07-29T07:16:13;55.57;;;53.43;;
3000;SDS011;1510;51.072;6.678;2023-07-29T07:18:40;6.43;;;3.43;;
3000;SDS011;1510;51.072;6.678;2023-07-29T07:21:07;14.00;;;13.10;;
3000;SDS011;1510;51.072;6.678;2023-07-29T07:23:35;5.13;;;4.37;;
3000;SDS011;1510;51.072;6.678;2023-07-29T07:26:02;7.37;;;5.50;;
3000;SDS011;1510;51.072;6.678;2023-07-29T07:28:29;4.70;;;2.50;;
3000;SDS011;1510;51.072;6.678;2023-07-29T07:30:56;6.77;;;2.13;;
3000;SDS011;1510;51.072;6.678;2023-07-29T07:33:23;5.30;;;2.23;;
3000;SDS011;1510;51.072;6.678;2023-07-29T07:35:49;6.30;;;2.40;;
3000;SDS011;1510;51.072;6.678;2023-07-29T07:38:16;6.07;;;1.80;;
3000;SDS011;1510;51.072;6.678;2023-07-29T07:40:53;5.47;;;1.63;;
3000;SDS011;1510;51.072;6.678;2023-07-29T07:43:20;4.77;;;1.50;;
3000;SDS011;1510;51.072;6.678;2023-07-29T07:45:47;8.83;;;2.00;;
3000;SDS011;1510;51.072;6.678;2023-07-29T07:48:14;4.70;;;1.90;;
3000;SDS011;1510;51.072;6.678;2023-07-29T07:50:42;10.37;;;2.20;;
3000;SDS011;1510;51.072;6.678;2023-07-29T07:53:09;5.40;;;1.80;;
3000;SDS011;1510;51.072;6.678;2023-07-29T07:55:37;6.90;;;1.73;;
3000;SDS011;1510;51.072;6.678;2023-07-29T07:58:06;5.27;;;2.00;;
3000;SDS011;1510;51.072;6.678;2023-07-29T08:00:32;4.40;;;1.50;;
3000;SDS011;1510;51.072;6.678;2023-07-29T08:02:59;6.00;;;1.70;;
3000;SDS011;1510;51.072;6.678;2023-07-29T08:05:26;7.40;;;1.90;;
3000;SDS011;1510;51.072;6.678;2023-07-29T08:07:53;4.20;;;1.40;;
3000;SDS011;1510;51.072;6.678;2023-07-29T08:10:20;5.90;;;1.90;;
3000;SDS011;1510;51.072;6.678;2023-07-29T08:12:46;4.83;;;1.90;;
3000;SDS011;1510;51.072;6.678;2023-07-29T08:15:15;5.17;;;1.60;;
3000;SDS011;1510;51.072;6.678;2023-07-29T08:17:42;6.23;;;1.87;;
3000;SDS011;1510;51.072;6.678;2023-07-29T08:20:09;4.83;;;1.20;;
3000;SDS011;1510;51.072;6.678;2023-07-29T08:22:36;4.93;;;1.70;;
3000;SDS011;1510;51.072;6.678;2023-07-29T08:25:03;4.80;;;1.47;;
3000;SDS011;1510;51.072;6.678;2023-07-29T08:27:30;4.60;;;1.40;;
3000;SDS011;1510;51.072;6.678;2023-07-29T08:29:59;6.40;;;1.20;;
3000;SDS011;1510;51.072;6.678;2023-07-29T08:32:27;4.40;;;1.37;;
3000;SDS011;1510;51.072;6.678;2023-07-29T08:34:54;4.17;;;1.27;;
3000;SDS011;1510;51.072;6.678;2023-07-29T08:37:20;5.43;;;1.60;;
3000;SDS011;1510;51.072;6.678;2023-07-29T08:39:47;5.03;;;1.27;;
3000;SDS011;1510;51.072;6.678;2023-07-29T08:42:14;4.47;;;1.20;;
3000;SDS011;1510;51.072;6.678;2023-07-29T08:44:45;4.07;;;1.23;;
3000;SDS011;1510;51.072;6.678;2023-07-29T08:47:14;8.80;;;1.50;;
3000;SDS011;1510;51.072;6.678;2023-07-29T08:49:43;4.73;;;1.53;;
3000;SDS011;1510;51.072;6.678;2023-07-29T08:52:11;4.30;;;1.37;;
3000;SDS011;1510;51.072;6.678;2023-07-29T08:54:38;5.60;;;1.20;;
3000;SDS011;1510;51.072;6.678;2023-07-29T08:57:05;3.87;;;1.00;;
3000;SDS011;1510;51.072;6.678;2023-07-29T08:59:33;4.83;;;1.37;;
3000;SDS011;1510;51.072;6.678;2023-07-29T09:01:59;6.20;;;1.87;;
3000;SDS011;1510;51.072;6.678;2023-07-29T09:04:27;4.33;;;1.43;;
3000;SDS011;1510;51.072;6.678;2023-07-29T09:06:55;4.60;;;1.40;;
3000;SDS011;1510;51.072;6.678;2023-07-29T09:09:22;4.83;;;1.50;;
3000;SDS011;1510;51.072;6.678;2023-07-29T09:11:49;8.03;;;1.50;;
3000;SDS011;1510;51.072;6.678;2023-07-29T09:14:16;4.70;;;1.27;;
3000;SDS011;1510;51.072;6.678;2023-07-29T09:16:44;5.87;;;1.60;;
3000;SDS011;1510;51.072;6.678;2023-07-29T09:19:11;5.80;;;2.17;;
3000;SDS011;1510;51.072;6.678;2023-07-29T09:21:39;5.93;;;1.60;;
3000;SDS011;1510;51.072;6.678;2023-07-29T09:24:07;4.67;;;1.50;;
3000;SDS011;1510;51.072;6.678;2023-07-29T09:26:35;4.63;;;1.43;;
3000;SDS011;1510;51.072;6.678;2023-07-29T09:29:02;5.40;;;1.37;;
3000;SDS011;1510;51.072;6.678;2023-07-29T09:31:29;4.63;;;1.37;;
3000;SDS011;1510;51.072;6.678;2023-07-29T09:33:56;5.00;;;1.87;;
3000;SDS011;1510;51.072;6.678;2023-07-29T09:36:24;4.83;;;1.50;;
3000;SDS011;1510;51.072;6.678;2023-07-29T09:38:54;5.10;;;1.87;;
3000;SDS011;1510;51.072;6.678;2023-07-29T09:41:24;6.10;;;1.70;;
3000;SDS011;1510;51.072;6.678;2023-07-29T09:43:55;5.50;;;2.23;;
3000;SDS011;1510;51.072;6.678;2023-07-29T09:46:24;4.40;;;1.40;;
3000;SDS011;1510;51.072;6.678;2023-07-29T09:48:52;4.20;;;1.40;;
3000;SDS011;1510;51.072;6.678;2023-07-29T09:51:21;4.97;;;1.80;;
3000;SDS011;1510;51.072;6.678;2023-07-29T09:53:49;6.23;;;1.70;;
3000;SDS011;1510;51.072;6.678;2023-07-29T09:56:17;5.70;;;1.67;;
3000;SDS011;1510;51.072;6.678;2023-07-29T09:58:51;4.73;;;1.50;;
3000;SDS011;1510;51.072;6.678;2023-07-29T10:01:18;5.67;;;2.00;;
3000;SDS011;1510;51.072;6.678;2023-07-29T10:03:45;6.80;;;2.40;;
3000;SDS011;1510;51.072;6.678;2023-07-29T10:06:13;7.40;;;2.90;;
3000;SDS011;1510;51.072;6.678;2023-07-29T10:08:40;5.03;;;1.57;;
3000;SDS011;1510;51.072;6.678;2023-07-29T10:11:10;6.50;;;2.67;;
3000;SDS011;1510;51.072;6.678;2023-07-29T10:13:37;7.20;;;1.80;;
3000;SDS011;1510;51.072;6.678;2023-07-29T10:16:06;4.80;;;1.70;;
3000;SDS011;1510;51.072;6.678;2023-07-29T10:18:33;8.10;;;2.00;;
3000;SDS011;1510;51.072;6.678;2023-07-29T10:21:00;4.40;;;1.63;;
3000;SDS011;1510;51.072;6.678;2023-07-29T10:23:31;8.97;;;2.10;;
3000;SDS011;1510;51.072;6.678;2023-07-29T10:26:02;5.00;;;1.60;;
3000;SDS011;1510;51.072;6.678;2023-07-29T10:28:30;4.90;;;1.40;;
3000;SDS011;1510;51.072;6.678;2023-07-29T10:30:58;5.10;;;1.87;;
3000;SDS011;1510;51.072;6.678;2023-07-29T10:33:26;4.37;;;1.63;;
3000;SDS011;1510;51.072;6.678;2023-07-29T10:35:53;4.53;;;1.60;;
3000;SDS011;1510;51.072;6.678;2023-07-29T10:38:21;5.50;;;1.80;;
3000;SDS011;1510;51.072;6.678;2023-07-29T10:40:50;7.43;;;1.60;;
3000;SDS011;1510;51.072;6.678;2023-07-29T10:43:18;5.33;;;1.80;;
3000;SDS011;1510;51.072;6.678;2023-07-29T10:45:49;5.40;;;1.77;;
3000;SDS011;1510;51.072;6.678;2023-07-29T10:53:56;7.40;;;1.97;;
3000;SDS011;1510;51.072;6.678;2023-07-29T10:56:24;6.10;;;2.13;;
3000;SDS011;1510;51.072;6.678;2023-07-29T10:58:55;5.13;;;1.80;;
3000;SDS011;1510;51.072;6.678;2023-07-29T11:01:27;5.60;;;1.83;;
3000;SDS011;1510;51.072;6.678;2023-07-29T11:04:02;12.13;;;2.23;;
3000;SDS011;1510;51.072;6.678;2023-07-29T11:09:55;6.17;;;1.93;;
3000;SDS011;1510;51.072;6.678;2023-07-29T11:12:33;4.70;;;1.63;;
3000;SDS011;1510;51.072;6.678;2023-07-29T11:15:02;12.80;;;2.73;;
3000;SDS011;1510;51.072;6.678;2023-07-29T11:17:32;5.93;;;1.60;;
3000;SDS011;1510;51.072;6.678;2023-07-29T11:20:01;5.47;;;2.07;;
3000;SDS011;1510;51.072;6.678;2023-07-29T11:22:29;7.30;;;2.07;;
3000;SDS011;1510;51.072;6.678;2023-07-29T11:24:57;5.60;;;2.00;;
3000;SDS011;1510;51.072;6.678;2023-07-29T11:27:24;5.07;;;2.00;;
3000;SDS011;1510;51.072;6.678;2023-07-29T11:29:55;7.90;;;1.70;;
3000;SDS011;1510;51.072;6.678;2023-07-29T11:32:23;5.50;;;1.60;;
3000;SDS011;1510;51.072;6.678;2023-07-29T11:34:50;5.30;;;2.00;;
3000;SDS011;1510;51.072;6.678;2023-07-29T11:37:18;5.43;;;2.00;;
3000;SDS011;1510;51.072;6.678;2023-07-29T11:39:46;5.93;;;1.80;;
3000;SDS011;1510;51.072;6.678;2023-07-29T11:42:14;5.10;;;2.20;;
3000;SDS011;1510;51.072;6.678;2023-07-29T11:44:41;5.47;;;1.80;;
3000;SDS011;1510;51.072;6.678;2023-07-29T11:47:08;6.70;;;2.00;;
3000;SDS011;1510;51.072;6.678;2023-07-29T11:49:37;5.00;;;1.50;;
3000;SDS011;1510;51.072;6.678;2023-07-29T11:52:06;6.60;;;2.10;;
3000;SDS011;1510;51.072;6.678;2023-07-29T11:54:35;4.73;;;1.50;;
3000;SDS011;1510;51.072;6.678;2023-07-29T11:57:03;8.43;;;2.20;;
3000;SDS011;1510;51.072;6.678;2023-07-29T11:59:32;4.83;;;1.43;;
3000;SDS011;1510;51.072;6.678;2023-07-29T12:02:00;5.20;;;1.50;;
3000;SDS011;1510;51.072;6.678;2023-07-29T12:04:27;5.03;;;1.80;;
3000;SDS011;1510;51.072;6.678;2023-07-29T12:06:55;6.70;;;2.13;;
3000;SDS011;1510;51.072;6.678;2023-07-29T12:09:22;7.63;;;2.30;;
3000;SDS011;1510;51.072;6.678;2023-07-29T12:11:51;5.87;;;2.10;;
3000;SDS011;1510;51.072;6.678;2023-07-29T12:14:18;7.63;;;2.40;;
3000;SDS011;1510;51.072;6.678;2023-07-29T12:16:48;8.87;;;2.47;;
3000;SDS011;1510;51.072;6.678;2023-07-29T12:19:17;6.90;;;2.53;;
3000;SDS011;1510;51.072;6.678;2023-07-29T12:21:44;8.87;;;1.80;;
3000;SDS011;1510;51.072;6.678;2023-07-29T12:24:11;5.00;;;1.67;;
3000;SDS011;1510;51.072;6.678;2023-07-29T12:26:39;4.50;;;1.60;;
3000;SDS011;1510;51.072;6.678;2023-07-29T12:29:14;5.20;;;1.33;;
3000;SDS011;1510;51.072;6.678;2023-07-29T12:31:42;5.20;;;1.60;;
3000;SDS011;1510;51.072;6.678;2023-07-29T12:34:09;4.60;;;1.27;;
3000;SDS011;1510;51.072;6.678;2023-07-29T12:36:43;7.93;;;2.97;;
3000;SDS011;1510;51.072;6.678;2023-07-29T12:39:15;5.20;;;1.50;;
3000;SDS011;1510;51.072;6.678;2023-07-29T12:41:43;4.70;;;1.50;;
3000;SDS011;1510;51.072;6.678;2023-07-29T12:44:10;5.30;;;1.90;;
3000;SDS011;1510;51.072;6.678;2023-07-29T12:46:38;5.20;;;1.60;;
3000;SDS011;1510;51.072;6.678;2023-07-29T12:49:05;5.10;;;1.47;;
3000;SDS011;1510;51.072;6.678;2023-07-29T12:51:32;5.13;;;1.53;;
3000;SDS011;1510;51.072;6.678;2023-07-29T12:53:59;6.97;;;1.30;;
3000;SDS011;1510;51.072;6.678;2023-07-29T12:56:26;4.70;;;1.60;;
3000;SDS011;1510;51.072;6.678;2023-07-29T12:58:53;5.50;;;2.30;;
3000;SDS011;1510;51.072;6.678;2023-07-29T13:01:20;6.10;;;1.80;;
3000;SDS011;1510;51.072;6.678;2023-07-29T13:03:48;5.50;;;1.60;;
3000;SDS011;1510;51.072;6.678;2023-07-29T13:06:15;4.60;;;1.70;;
3000;SDS011;1510;51.072;6.678;2023-07-29T13:08:42;9.17;;;2.47;;
3000;SDS011;1510;51.072;6.678;2023-07-29T13:11:10;7.23;;;2.03;;
3000;SDS011;1510;51.072;6.678;2023-07-29T13:13:37;5.63;;;1.80;;
3000;SDS011;1510;51.072;6.678;2023-07-29T13:16:04;4.70;;;1.97;;
3000;SDS011;1510;51.072;6.678;2023-07-29T13:18:31;6.80;;;2.17;;
3000;SDS011;1510;51.072;6.678;2023-07-29T13:20:59;4.73;;;1.90;;
3000;SDS011;1510;51.072;6.678;2023-07-29T13:23:26;5.90;;;2.23;;
3000;SDS011;1510;51.072;6.678;2023-07-29T13:25:54;5.43;;;3.00;;
3000;SDS011;1510;51.072;6.678;2023-07-29T13:28:21;6.00;;;3.70;;
3000;SDS011;1510;51.072;6.678;2023-07-29T13:30:48;7.30;;;5.57;;
3000;SDS011;1510;51.072;6.678;2023-07-29T13:33:15;9.73;;;8.90;;
3000;SDS011;1510;51.072;6.678;2023-07-29T13:35:42;22.43;;;21.03;;
3000;SDS011;1510;51.072;6.678;2023-07-29T13:38:10;80.23;;;76.53;;
3000;SDS011;1510;51.072;6.678;2023-07-29T13:40:37;152.73;;;147.40;;
3000;SDS011;1510;51.072;6.678;2023-07-29T13:43:04;114.67;;;110.63;;
3000;SDS011;1510;51.072;6.678;2023-07-29T13:45:31;257.43;;;249.83;;
3000;SDS011;1510;51.072;6.678;2023-07-29T13:47:58;507.93;;;492.90;;
3000;SDS011;1510;51.072;6.678;2023-07-29T13:50:25;564.93;;;546.87;;
3000;SDS011;1510;51.072;6.678;2023-07-29T13:52:51;593.83;;;575.07;;
3000;SDS011;1510;51.072;6.678;2023-07-29T13:55:20;650.67;;;627.33;;
3000;SDS011;1510;51.072;6.678;2023-07-29T13:57:47;705.33;;;676.40;;
3000;SDS011;1510;51.072;6.678;2023-07-29T14:00:14;783.60;;;744.10;;
3000;SDS011;1510;51.072;6.678;2023-07-29T14:02:41;819.97;;;773.30;;
3000;SDS011;1510;51.072;6.678;2023-07-29T14:05:08;803.27;;;759.30;;
3000;SDS011;1510;51.072;6.678;2023-07-29T14:07:36;838.67;;;779.87;;
3000;SDS011;1510;51.072;6.678;2023-07-29T14:10:04;319.13;;;308.93;;
3000;SDS011;1510;51.072;6.678;2023-07-29T14:12:32;95.97;;;92.40;;
3000;SDS011;1510;51.072;6.678;2023-07-29T14:14:59;9.90;;;9.20;;
3000;SDS011;1510;51.072;6.678;2023-07-29T14:17:26;7.10;;;6.40;;
3000;SDS011;1510;51.072;6.678;2023-07-29T14:19:53;5.90;;;2.67;;
3000;SDS011;1510;51.072;6.678;2023-07-29T14:22:20;9.70;;;3.60;;
3000;SDS011;1510;51.072;6.678;2023-07-29T14:24:47;5.53;;;2.70;;
3000;SDS011;1510;51.072;6.678;2023-07-29T14:27:14;5.80;;;2.50;;
3000;SDS011;1510;51.072;6.678;2023-07-29T14:29:43;5.00;;;2.00;;
3000;SDS011;1510;51.072;6.678;2023-07-29T14:32:10;6.00;;;2.03;;
3000;SDS011;1510;51.072;6.678;2023-07-29T14:34:37;7.50;;;2.20;;
3000;SDS011;1510;51.072;6.678;2023-07-29T14:37:04;6.90;;;2.00;;
3000;SDS011;1510;51.072;6.678;2023-07-29T14:39:31;6.37;;;2.17;;
3000;SDS011;1510;51.072;6.678;2023-07-29T14:41:59;6.03;;;1.63;;
3000;SDS011;1510;51.072;6.678;2023-07-29T14:44:25;6.73;;;2.47;;
3000;SDS011;1510;51.072;6.678;2023-07-29T14:46:54;6.40;;;2.37;;
3000;SDS011;1510;51.072;6.678;2023-07-29T14:49:20;6.40;;;2.47;;
3000;SDS011;1510;51.072;6.678;2023-07-29T14:51:48;8.60;;;3.73;;
3000;SDS011;1510;51.072;6.678;2023-07-29T14:54:14;5.50;;;2.13;;